Time;durP1;ratioP1;P1;durP2;ratioP2;P2;SDS_P1;SDS_P2;PMS_P1;PMS_P2;Temp;Humidity;BMP_temperature;BMP_pressure;BME280_temperature;BME280_humidity;BME280_pressure;Samples;Min_cycle;Max_cycle;Signal;HPM_P1;HPM_P2
2022/04/01 00:02:03;;;;;;;6.63;4.68;;;;;;;0.08;100.00;100587.28;5009748;28;20456;-66
2022/04/01 00:04:28;;;;;;;6.13;5.00;;;;;;;0.04;100.00;100594.78;5011998;28;20103;-67
2022/04/01 00:06:54;;;;;;;6.47;4.78;;;;;;;0.11;100.00;100594.28;5010501;28;20485;-67
2022/04/01 00:09:19;;;;;;;9.90;5.10;;;;;;;0.11;100.00;100590.03;5013220;28;20034;-66
2022/04/01 00:11:44;;;;;;;9.40;5.18;;;;;;;0.10;100.00;100613.25;5013052;28;20505;-66
2022/04/01 00:14:10;;;;;;;7.68;4.45;;;;;;;0.04;100.00;100603.44;5012606;28;20025;-66
2022/04/01 00:16:35;;;;;;;9.27;5.07;;;;;;;0.03;100.00;100600.75;5012180;28;20033;-66
2022/04/01 00:19:00;;;;;;;7.47;4.38;;;;;;;0.05;100.00;100605.19;5005397;28;20046;-66
2022/04/01 00:21:26;;;;;;;11.10;5.18;;;;;;;0.01;100.00;100603.25;5000414;28;20061;-66
2022/04/01 00:23:51;;;;;;;6.38;5.28;;;;;;;0.01;100.00;100607.56;5013329;28;20030;-66
2022/04/01 00:26:16;;;;;;;7.97;5.15;;;;;;;0.01;100.00;100611.00;5011036;28;20099;-66
2022/04/01 00:28:42;;;;;;;10.43;5.22;;;;;;;0.04;100.00;100607.72;5012414;28;20026;-66
2022/04/01 00:31:09;;;;;;;8.38;4.95;;;;;;;0.02;100.00;100609.34;5012995;28;20076;-66
2022/04/01 00:33:34;;;;;;;8.45;5.35;;;;;;;-0.01;100.00;100615.22;5009113;28;20026;-66
2022/04/01 00:35:59;;;;;;;8.48;5.88;;;;;;;-0.04;100.00;100604.69;5011488;28;20034;-66
2022/04/01 00:38:25;;;;;;;8.07;6.03;;;;;;;-0.02;100.00;100606.56;5010868;28;20042;-66
2022/04/01 00:40:51;;;;;;;8.55;5.35;;;;;;;-0.09;100.00;100617.38;5011588;28;20029;-66
2022/04/01 00:43:24;;;;;;;7.97;5.35;;;;;;;-0.06;100.00;100619.25;5012570;28;20678;-66
2022/04/01 00:45:50;;;;;;;9.68;5.78;;;;;;;-0.09;100.00;100627.72;5005238;28;20710;-66
2022/04/01 00:48:16;;;;;;;11.15;5.18;;;;;;;-0.07;100.00;100627.81;5011560;28;20044;-66
2022/04/01 00:50:42;;;;;;;9.40;5.75;;;;;;;-0.07;100.00;100620.97;5010170;28;20024;-66
2022/04/01 00:53:07;;;;;;;9.38;4.88;;;;;;;-0.10;100.00;100623.34;5012487;28;20030;-66
2022/04/01 00:55:33;;;;;;;9.48;5.57;;;;;;;-0.09;100.00;100629.44;5012608;28;20354;-66
2022/04/01 00:57:59;;;;;;;7.40;4.88;;;;;;;-0.08;100.00;100629.50;5011326;28;20111;-66
2022/04/01 01:00:25;;;;;;;7.80;5.70;;;;;;;-0.13;100.00;100625.78;5009222;28;20018;-66
2022/04/01 01:02:50;;;;;;;11.85;4.95;;;;;;;-0.11;100.00;100626.78;4993614;28;20030;-66
2022/04/01 01:05:16;;;;;;;7.05;5.13;;;;;;;-0.11;100.00;100649.13;5011069;28;20029;-66
2022/04/01 01:07:44;;;;;;;8.88;5.65;;;;;;;-0.10;100.00;100635.41;5010627;28;20056;-66
2022/04/01 01:10:10;;;;;;;7.60;5.40;;;;;;;-0.13;100.00;100640.41;5000696;28;20107;-66
2022/04/01 01:12:37;;;;;;;12.80;5.25;;;;;;;-0.16;100.00;100641.13;5011315;28;20062;-66
2022/04/01 01:15:10;;;;;;;8.45;5.35;;;;;;;-0.13;100.00;100646.47;5012186;28;20529;-66
2022/04/01 01:17:38;;;;;;;8.05;4.93;;;;;;;-0.15;100.00;100658.41;5009843;28;20937;-66
2022/04/01 01:20:12;;;;;;;8.77;5.20;;;;;;;-0.17;100.00;100650.56;5007734;28;20053;-66
2022/04/01 01:22:38;;;;;;;7.07;4.93;;;;;;;-0.14;100.00;100651.56;5010917;28;20400;-66
2022/04/01 01:25:07;;;;;;;10.30;5.80;;;;;;;-0.13;100.00;100649.06;5011025;28;20101;-66
2022/04/01 01:27:33;;;;;;;6.32;5.13;;;;;;;-0.08;100.00;100649.28;5010364;28;20030;-66
2022/04/01 01:29:58;;;;;;;8.27;5.68;;;;;;;-0.07;100.00;100643.31;5012407;28;20470;-66
2022/04/01 01:32:23;;;;;;;12.32;5.82;;;;;;;-0.04;100.00;100649.56;5011855;28;20466;-65
2022/04/01 01:34:49;;;;;;;10.20;5.88;;;;;;;-0.07;100.00;100640.75;5012571;28;20030;-66
2022/04/01 01:37:14;;;;;;;12.95;5.88;;;;;;;-0.03;100.00;100647.88;5008327;28;20034;-66
2022/04/01 01:39:40;;;;;;;11.48;6.20;;;;;;;-0.04;100.00;100644.41;5011035;28;20030;-66
2022/04/01 01:42:07;;;;;;;8.10;5.93;;;;;;;-0.04;100.00;100659.00;5010324;28;20064;-66
2022/04/01 01:44:33;;;;;;;10.57;6.20;;;;;;;-0.01;100.00;100661.78;5012183;28;20109;-66
2022/04/01 01:46:58;;;;;;;7.97;5.90;;;;;;;0.03;100.00;100657.66;5010162;28;20108;-66
2022/04/01 01:49:23;;;;;;;8.73;5.72;;;;;;;-0.01;100.00;100662.66;5007422;28;20527;-65
2022/04/01 01:54:45;;;;;;;7.78;5.40;;;;;;;0.05;100.00;100658.66;5012082;28;20131;-66
2022/04/01 01:57:31;;;;;;;12.55;6.50;;;;;;;0.06;100.00;100655.25;5009994;28;20017;-66
2022/04/01 01:59:56;;;;;;;8.90;6.13;;;;;;;0.02;100.00;100655.91;4998148;28;20025;-65
2022/04/01 02:02:22;;;;;;;10.00;5.80;;;;;;;0.01;100.00;100659.28;5009718;28;20022;-65
2022/04/01 02:04:48;;;;;;;8.48;5.53;;;;;;;0.03;100.00;100668.91;5012827;28;20096;-66
2022/04/01 02:07:14;;;;;;;7.22;5.80;;;;;;;0.01;100.00;100664.47;5012815;28;20034;-65
2022/04/01 02:09:46;;;;;;;10.93;6.18;;;;;;;0.06;100.00;100669.09;5014621;28;20032;-65
2022/04/01 02:12:12;;;;;;;10.20;6.15;;;;;;;0.07;100.00;100655.34;5005861;28;20034;-66
2022/04/01 02:14:37;;;;;;;8.35;6.05;;;;;;;0.05;100.00;100650.88;5014043;28;20029;-66
2022/04/01 02:17:04;;;;;;;9.82;7.38;;;;;;;0.03;100.00;100653.41;5012318;28;20474;-65
2022/04/01 02:19:31;;;;;;;12.75;6.78;;;;;;;0.06;100.00;100660.44;5014139;28;20119;-65
2022/04/01 02:21:56;;;;;;;9.93;6.13;;;;;;;0.09;100.00;100663.19;5014558;28;20129;-65
2022/04/01 02:24:23;;;;;;;10.52;7.05;;;;;;;0.08;100.00;100664.00;5015710;28;20105;-65
2022/04/01 02:26:49;;;;;;;8.68;6.00;;;;;;;0.06;100.00;100666.50;5013198;28;20022;-66
2022/04/01 02:29:16;;;;;;;10.93;6.13;;;;;;;0.04;100.00;100670.72;5015072;28;20366;-65
2022/04/01 02:31:43;;;;;;;8.40;5.95;;;;;;;0.05;100.00;100671.59;5014596;28;20066;-66
2022/04/01 02:34:08;;;;;;;9.73;6.55;;;;;;;0.05;100.00;100672.47;5013194;28;20037;-66
2022/04/01 02:36:34;;;;;;;11.70;7.10;;;;;;;-0.01;100.00;100680.78;5015014;28;20037;-65
2022/04/01 02:39:01;;;;;;;12.73;6.35;;;;;;;0.01;100.00;100679.97;5013507;28;20029;-65
2022/04/01 02:41:26;;;;;;;10.55;6.78;;;;;;;0.03;100.00;100694.78;4997043;28;20041;-66
2022/04/01 02:44:08;;;;;;;12.52;6.35;;;;;;;0.05;100.00;100692.28;5014420;28;20472;-66
2022/04/01 02:46:34;;;;;;;7.95;6.15;;;;;;;0.07;100.00;100707.09;5014795;28;20036;-65
2022/04/01 02:49:00;;;;;;;8.95;6.18;;;;;;;0.05;100.00;100694.88;5010254;28;20593;-66
2022/04/01 02:51:26;;;;;;;8.98;6.18;;;;;;;0.05;100.00;100705.22;5014355;28;20028;-65
2022/04/01 02:53:51;;;;;;;7.80;5.78;;;;;;;0.10;100.00;100699.50;5013411;28;20026;-66
2022/04/01 02:56:17;;;;;;;12.98;6.05;;;;;;;0.11;100.00;100703.88;5013864;28;20053;-66
2022/04/01 02:58:42;;;;;;;11.15;5.80;;;;;;;0.08;100.00;100714.06;5012576;28;20112;-66
2022/04/01 03:01:08;;;;;;;9.73;6.22;;;;;;;0.10;100.00;100715.00;5015170;28;20017;-66
2022/04/01 03:03:34;;;;;;;9.70;6.43;;;;;;;0.12;100.00;100717.69;5013064;28;20021;-65
2022/04/01 03:05:59;;;;;;;9.48;6.45;;;;;;;0.08;100.00;100729.56;5014615;28;20034;-66
2022/04/01 03:08:26;;;;;;;9.20;6.32;;;;;;;0.09;100.00;100727.88;5012293;28;20084;-65
2022/04/01 03:10:52;;;;;;;10.45;6.85;;;;;;;0.06;100.00;100726.00;5013593;28;20035;-65
2022/04/01 03:13:17;;;;;;;11.68;6.90;;;;;;;0.09;100.00;100730.44;5012916;28;20037;-66
2022/04/01 03:15:42;;;;;;;9.23;6.28;;;;;;;0.09;100.00;100733.91;5013193;28;20021;-65
2022/04/01 03:18:09;;;;;;;10.70;6.63;;;;;;;0.10;100.00;100734.84;5011766;28;20049;-66
2022/04/01 03:20:35;;;;;;;12.65;7.57;;;;;;;0.04;100.00;100730.22;5012948;28;20527;-66
2022/04/01 03:23:02;;;;;;;13.80;6.53;;;;;;;0.04;100.00;100737.06;5013713;28;20113;-66
2022/04/01 03:25:32;;;;;;;10.88;6.05;;;;;;;0.01;100.00;100739.47;5010748;28;20026;-66
2022/04/01 03:27:59;;;;;;;8.60;6.28;;;;;;;0.05;100.00;100744.03;5007344;28;20041;-65
2022/04/01 03:30:24;;;;;;;11.77;5.82;;;;;;;0.02;100.00;100749.91;5013934;28;20033;-67
2022/04/01 03:32:50;;;;;;;10.32;6.35;;;;;;;0.01;100.00;100744.66;5012625;28;20030;-66
2022/04/01 03:35:17;;;;;;;9.23;6.15;;;;;;;0.03;100.00;100741.34;5011934;28;20757;-66
2022/04/01 03:37:49;;;;;;;7.53;5.68;;;;;;;0.02;100.00;100739.56;5013489;28;20041;-66
2022/04/01 03:40:15;;;;;;;9.13;6.60;;;;;;;-0.02;100.00;100751.41;5012605;28;20037;-65
2022/04/01 03:42:42;;;;;;;10.70;6.65;;;;;;;-0.05;100.00;100751.25;5013083;28;20040;-66
2022/04/01 03:45:07;;;;;;;10.00;6.72;;;;;;;-0.01;100.00;100749.75;5013118;28;20033;-65
2022/04/01 03:48:00;;;;;;;9.80;6.72;;;;;;;-0.04;100.00;100765.97;4994951;28;20084;-66
2022/04/01 03:50:33;;;;;;;9.25;6.78;;;;;;;-0.04;100.00;100775.41;4982279;28;20062;-66
2022/04/01 03:53:08;;;;;;;10.15;6.57;;;;;;;-0.06;100.00;100772.72;5013202;28;20033;-67
2022/04/01 03:55:35;;;;;;;7.82;5.63;;;;;;;-0.03;100.00;100761.69;5013767;28;20033;-66
2022/04/01 03:58:06;;;;;;;11.27;6.47;;;;;;;-0.01;100.00;100771.31;5011296;28;20033;-66
2022/04/01 04:00:32;;;;;;;11.57;5.20;;;;;;;0.02;100.00;100777.47;5012110;28;20151;-66
2022/04/01 04:02:58;;;;;;;9.80;5.97;;;;;;;0.04;100.00;100781.03;5010826;28;20063;-66
2022/04/01 04:05:26;;;;;;;10.50;6.75;;;;;;;0.01;100.00;100783.44;5011748;28;20513;-66
2022/04/01 04:07:51;;;;;;;10.82;6.03;;;;;;;0.00;100.00;100787.75;4994578;28;20024;-66
2022/04/01 04:10:17;;;;;;;9.68;6.57;;;;;;;-0.01;100.00;100792.00;5013044;28;20030;-66
2022/04/01 04:12:43;;;;;;;10.75;6.40;;;;;;;-0.02;100.00;100797.97;5003650;28;20034;-66
2022/04/01 04:15:09;;;;;;;11.48;6.35;;;;;;;0.05;100.00;100795.75;5012065;28;20034;-66
2022/04/01 04:17:37;;;;;;;10.93;6.40;;;;;;;0.04;100.00;100807.81;5012427;28;20042;-66
2022/04/01 04:20:09;;;;;;;13.18;6.70;;;;;;;0.04;100.00;100800.06;5010130;28;20030;-67
2022/04/01 04:23:07;;;;;;;11.00;6.40;;;;;;;-0.02;100.00;100810.91;4994163;28;20447;-66
2022/04/01 04:25:34;;;;;;;10.57;6.85;;;;;;;0.02;100.00;100805.94;4999873;28;20029;-66
2022/04/01 04:28:00;;;;;;;10.90;6.13;;;;;;;0.10;100.00;100817.63;5008634;28;20458;-66
2022/04/01 04:30:35;;;;;;;11.13;6.78;;;;;;;0.10;100.00;100821.09;5012853;28;20097;-67
2022/04/01 04:33:11;;;;;;;12.20;6.65;;;;;;;0.10;100.00;100818.50;5008459;28;20371;-66
2022/04/01 04:35:39;;;;;;;8.80;6.22;;;;;;;0.10;100.00;100827.97;5011453;28;20087;-66
2022/04/01 04:38:06;;;;;;;9.15;7.03;;;;;;;0.10;100.00;100830.56;5012189;28;20121;-66
2022/04/01 04:40:31;;;;;;;10.70;5.97;;;;;;;0.09;100.00;100834.81;4998663;28;20021;-67
2022/04/01 04:42:57;;;;;;;12.50;6.82;;;;;;;0.05;100.00;100834.56;5012531;28;20036;-66
2022/04/01 04:45:25;;;;;;;8.98;5.95;;;;;;;0.09;100.00;100832.22;5012590;28;20468;-66
2022/04/01 04:47:51;;;;;;;10.45;5.55;;;;;;;0.08;100.00;100843.41;4993820;28;20109;-66
2022/04/01 04:50:18;;;;;;;7.72;4.93;;;;;;;0.11;100.00;100840.06;5010013;28;20030;-66
2022/04/01 04:52:53;;;;;;;10.27;5.57;;;;;;;0.10;100.00;100846.97;5011241;28;20026;-67
2022/04/01 04:55:20;;;;;;;8.50;5.00;;;;;;;0.10;100.00;100846.97;5011848;28;20041;-66
2022/04/01 04:57:47;;;;;;;7.57;5.22;;;;;;;0.11;100.00;100853.00;5011766;28;20018;-66
2022/04/01 05:00:19;;;;;;;7.13;5.03;;;;;;;0.11;100.00;100853.94;5012049;28;20390;-66
2022/04/01 05:03:11;;;;;;;10.15;5.70;;;;;;;0.12;100.00;100870.34;5010402;28;20026;-66
2022/04/01 05:05:46;;;;;;;7.65;5.32;;;;;;;0.15;100.00;100870.53;5011649;28;20030;-66
2022/04/01 05:08:30;;;;;;;11.23;6.43;;;;;;;0.11;100.00;100876.31;5008021;28;20112;-66
2022/04/01 05:11:26;;;;;;;9.45;6.45;;;;;;;0.10;100.00;100879.72;5005265;28;20034;-66
2022/04/01 05:14:04;;;;;;;11.48;5.88;;;;;;;0.10;100.00;100887.47;4992459;28;20048;-66
2022/04/01 05:16:59;;;;;;;12.75;6.90;;;;;;;0.11;100.00;100887.56;5009163;28;20022;-66
2022/04/01 05:19:29;;;;;;;8.68;6.07;;;;;;;0.08;100.00;100895.16;5006675;28;20677;-66
2022/04/01 05:22:08;;;;;;;10.98;6.03;;;;;;;0.11;100.00;100895.31;5008744;28;20033;-66
2022/04/01 05:24:44;;;;;;;13.77;5.75;;;;;;;0.12;100.00;100909.16;5011120;28;20034;-67
2022/04/01 05:27:30;;;;;;;8.50;5.75;;;;;;;0.15;100.00;100902.47;5009459;28;20029;-67
2022/04/01 05:30:12;;;;;;;9.88;4.55;;;;;;;0.13;100.00;100903.19;5010006;28;20029;-67
2022/04/01 05:32:39;;;;;;;8.18;4.97;;;;;;;0.15;100.00;100922.28;5006489;28;20084;-67
2022/04/01 05:35:06;;;;;;;7.05;4.40;;;;;;;0.16;100.00;100916.28;4992420;28;20105;-67
2022/04/01 05:37:33;;;;;;;9.20;4.18;;;;;;;0.16;100.00;100911.09;5008633;28;20088;-66
2022/04/01 05:40:05;;;;;;;7.15;4.20;;;;;;;0.22;100.00;100927.03;5007375;28;20034;-68
2022/04/01 05:42:32;;;;;;;5.68;4.00;;;;;;;0.27;100.00;100933.38;5010812;28;20026;-68
2022/04/01 05:44:59;;;;;;;7.05;4.35;;;;;;;0.23;100.00;100938.25;5011042;28;20088;-69
2022/04/01 05:47:25;;;;;;;5.32;3.60;;;;;;;0.26;100.00;100939.34;5009965;28;20041;-68
2022/04/01 05:49:56;;;;;;;5.28;3.92;;;;;;;0.24;100.00;100942.63;5005952;28;20030;-69
2022/04/01 05:52:22;;;;;;;12.13;4.32;;;;;;;0.24;100.00;100948.69;5011154;28;20030;-68
2022/04/01 05:54:49;;;;;;;5.22;3.80;;;;;;;0.25;100.00;100949.59;5011081;28;20068;-68
2022/04/01 05:57:18;;;;;;;10.35;4.13;;;;;;;0.29;100.00;100951.56;4992351;28;20037;-69
2022/04/01 05:59:43;;;;;;;8.55;3.60;;;;;;;0.29;100.00;100956.75;5010815;28;20080;-69
2022/04/01 06:02:38;;;;;;;8.65;4.00;;;;;;;0.28;100.00;100955.84;5009397;28;20018;-68
2022/04/01 06:05:22;;;;;;;6.93;4.15;;;;;;;0.38;100.00;100961.56;5009441;28;20041;-68
2022/04/01 06:08:11;;;;;;;11.57;4.53;;;;;;;0.32;100.00;100962.97;5007509;28;20029;-69
2022/04/01 06:11:00;;;;;;;7.65;4.22;;;;;;;0.35;100.00;100967.44;5010568;28;20284;-69
2022/04/01 06:13:34;;;;;;;5.32;3.85;;;;;;;0.35;100.00;100976.91;4993472;28;20053;-66
2022/04/01 06:16:11;;;;;;;6.53;3.40;;;;;;;0.37;100.00;100983.06;5010930;28;20061;-67
2022/04/01 06:18:51;;;;;;;6.75;4.00;;;;;;;0.41;100.00;100978.19;5010933;28;20054;-67
2022/04/01 06:21:24;;;;;;;5.97;4.07;;;;;;;0.48;100.00;100974.25;5010339;28;20055;-67
2022/04/01 06:23:49;;;;;;;9.02;3.70;;;;;;;0.50;100.00;100977.81;5011422;28;20405;-66
2022/04/01 06:26:15;;;;;;;5.88;3.90;;;;;;;0.55;100.00;100981.59;5009718;28;20029;-66
2022/04/01 06:29:01;;;;;;;5.57;3.90;;;;;;;0.64;100.00;100992.50;5010862;28;20079;-66
2022/04/01 06:31:29;;;;;;;7.80;3.75;;;;;;;0.73;100.00;100991.25;5008280;28;20030;-66
2022/04/01 06:34:06;;;;;;;7.20;3.22;;;;;;;0.78;100.00;100984.63;5007236;28;20403;-67
2022/04/01 06:36:41;;;;;;;4.40;3.03;;;;;;;0.88;100.00;101002.47;5011082;28;20034;-66
2022/04/01 06:39:13;;;;;;;9.52;3.55;;;;;;;0.90;100.00;100995.72;5010679;28;20033;-66
2022/04/01 06:41:47;;;;;;;6.25;3.20;;;;;;;0.93;100.00;101005.34;5005329;28;20080;-70
2022/04/01 06:44:13;;;;;;;7.57;2.95;;;;;;;0.95;100.00;101006.31;5010322;28;20022;-68
2022/04/01 06:46:38;;;;;;;7.55;2.92;;;;;;;1.06;100.00;101006.94;5013163;28;20536;-67
2022/04/01 06:49:08;;;;;;;4.18;2.83;;;;;;;1.09;100.00;101014.91;5009618;28;20037;-68
2022/04/01 06:51:38;;;;;;;7.13;3.30;;;;;;;1.09;100.00;101007.16;5010947;28;20413;-68
2022/04/01 06:54:04;;;;;;;6.13;3.25;;;;;;;1.12;100.00;101013.38;5014894;28;20079;-68
2022/04/01 06:56:30;;;;;;;4.88;2.83;;;;;;;1.14;100.00;101024.75;5014535;28;20045;-68
2022/04/01 06:58:55;;;;;;;7.45;2.72;;;;;;;1.17;100.00;101022.31;5013424;28;20084;-69
2022/04/01 07:01:21;;;;;;;5.82;2.90;;;;;;;1.23;100.00;101020.88;5013237;28;20049;-70
2022/04/01 07:03:46;;;;;;;7.68;2.67;;;;;;;1.24;100.00;101018.38;5013414;28;20022;-67
2022/04/01 07:06:11;;;;;;;4.03;2.45;;;;;;;1.21;100.00;101027.66;5013130;28;20049;-68
2022/04/01 07:08:37;;;;;;;5.38;2.55;;;;;;;1.20;100.00;101026.78;5014224;28;20053;-68
2022/04/01 07:11:02;;;;;;;4.32;2.30;;;;;;;1.25;100.00;101025.34;5017778;28;20029;-68
2022/04/01 07:13:27;;;;;;;5.32;2.58;;;;;;;1.31;100.00;101033.47;5013250;28;20026;-68
2022/04/01 07:15:54;;;;;;;3.92;2.28;;;;;;;1.27;100.00;101033.22;5013531;28;20033;-67
2022/04/01 07:18:21;;;;;;;3.08;1.95;;;;;;;1.16;100.00;101035.19;5013608;28;20125;-68
2022/04/01 07:20:47;;;;;;;3.20;2.45;;;;;;;1.15;100.00;101041.16;5012547;28;20482;-68
2022/04/01 07:23:12;;;;;;;6.82;2.75;;;;;;;1.14;100.00;101042.88;5013671;28;20107;-68
2022/04/01 07:25:38;;;;;;;5.97;2.33;;;;;;;1.18;100.00;101043.94;5011330;28;20172;-67
2022/04/01 07:28:03;;;;;;;4.78;2.53;;;;;;;1.22;100.00;101039.81;5012445;28;20034;-69
2022/04/01 07:30:29;;;;;;;4.97;2.40;;;;;;;1.19;100.00;101040.53;5012413;28;20046;-67
2022/04/01 07:32:58;;;;;;;9.68;2.92;;;;;;;1.27;100.00;101038.41;5010903;28;20037;-69
2022/04/01 07:35:24;;;;;;;1.90;1.60;;;;;;;1.29;100.00;101047.13;5012479;28;20057;-69
2022/04/01 07:37:49;;;;;;;9.93;2.63;;;;;;;1.39;100.00;101053.78;5013522;28;20540;-69
2022/04/01 07:40:14;;;;;;;6.40;1.70;;;;;;;1.43;100.00;101053.13;4994738;28;20026;-69
2022/04/01 07:42:40;;;;;;;3.53;1.67;;;;;;;1.49;100.00;101056.97;5012104;28;20067;-69
2022/04/01 07:45:07;;;;;;;4.05;1.88;;;;;;;1.63;100.00;101059.44;5016069;28;20028;-69
2022/04/01 07:47:33;;;;;;;4.18;1.63;;;;;;;1.65;100.00;101063.00;5012888;28;20061;-67
2022/04/01 07:50:00;;;;;;;5.20;2.08;;;;;;;1.69;100.00;101062.38;5013471;28;20026;-67
2022/04/01 07:52:26;;;;;;;4.28;1.75;;;;;;;1.78;100.00;101064.59;5017900;28;20045;-67
2022/04/01 07:54:52;;;;;;;5.35;1.65;;;;;;;1.79;100.00;101063.78;5013072;28;20037;-68
2022/04/01 07:57:18;;;;;;;4.18;1.80;;;;;;;1.88;100.00;101066.88;5020314;28;20045;-68
2022/04/01 07:59:44;;;;;;;4.75;1.52;;;;;;;1.93;100.00;101068.03;5017048;28;20367;-68
2022/04/01 08:02:10;;;;;;;7.40;1.85;;;;;;;1.98;100.00;101071.78;5011475;28;20033;-68
2022/04/01 08:04:36;;;;;;;4.00;1.70;;;;;;;1.97;100.00;101072.59;4996899;28;20068;-68
2022/04/01 08:07:02;;;;;;;4.50;1.70;;;;;;;2.06;100.00;101077.38;5004264;28;20065;-68
2022/04/01 08:09:27;;;;;;;4.40;1.77;;;;;;;2.21;100.00;101077.31;5012931;28;20030;-67
2022/04/01 08:11:55;;;;;;;4.25;1.55;;;;;;;2.32;100.00;101077.88;5012549;28;20030;-68
2022/04/01 08:14:20;;;;;;;2.15;1.50;;;;;;;2.30;100.00;101077.81;4996191;28;20022;-68
2022/04/01 08:16:46;;;;;;;3.85;1.45;;;;;;;2.32;100.00;101078.81;5012689;28;20034;-68
2022/04/01 08:19:12;;;;;;;1.95;1.40;;;;;;;2.41;100.00;101083.56;5010704;28;20077;-68
2022/04/01 08:21:37;;;;;;;2.70;1.30;;;;;;;2.43;100.00;101083.66;4993684;28;20030;-68
2022/04/01 08:24:03;;;;;;;2.05;1.20;;;;;;;2.52;100.00;101089.34;5012782;28;20029;-67
2022/04/01 08:26:29;;;;;;;3.17;1.20;;;;;;;2.66;100.00;101088.38;5016636;28;20068;-68
2022/04/01 08:28:55;;;;;;;2.53;1.35;;;;;;;2.67;100.00;101094.47;5008159;28;20137;-67
2022/04/01 08:31:21;;;;;;;3.65;1.42;;;;;;;2.85;100.00;101094.56;5012663;28;20105;-68
2022/04/01 08:33:47;;;;;;;3.08;1.23;;;;;;;2.95;100.00;101099.38;5011339;28;20053;-68
2022/04/01 08:36:14;;;;;;;4.65;1.33;;;;;;;3.06;100.00;101099.06;5011168;28;20444;-68
2022/04/01 08:38:40;;;;;;;4.55;1.40;;;;;;;3.18;100.00;101115.28;5011611;28;20034;-68
2022/04/01 08:41:06;;;;;;;3.72;1.33;;;;;;;3.30;100.00;101113.28;5010865;28;20040;-67
2022/04/01 08:43:34;;;;;;;2.33;1.50;;;;;;;3.48;99.93;101115.03;5012182;28;20417;-67
2022/04/01 08:46:03;;;;;;;1.95;1.30;;;;;;;3.44;98.35;101113.09;5008999;28;20097;-67
2022/04/01 08:48:29;;;;;;;1.80;1.42;;;;;;;3.45;97.95;101122.69;5003989;28;20025;-67
2022/04/01 08:50:54;;;;;;;4.25;1.38;;;;;;;3.46;99.36;101125.38;5009175;28;20100;-68
2022/04/01 08:53:21;;;;;;;3.00;1.23;;;;;;;3.52;99.94;101129.97;5010136;28;20030;-67
2022/04/01 08:55:48;;;;;;;3.00;1.20;;;;;;;3.38;97.64;101124.97;4995213;28;20057;-68
2022/04/01 08:58:17;;;;;;;2.97;1.30;;;;;;;3.33;97.94;101134.25;5013771;28;20552;-67
2022/04/01 09:00:44;;;;;;;1.42;1.25;;;;;;;3.30;99.33;101134.09;5009784;28;20054;-67
2022/04/01 09:03:11;;;;;;;2.70;1.48;;;;;;;3.27;95.10;101146.03;5012391;28;20042;-68
2022/04/01 09:05:37;;;;;;;1.83;0.88;;;;;;;3.32;96.76;101139.38;5011518;28;20037;-66
2022/04/01 09:08:05;;;;;;;2.90;1.30;;;;;;;3.33;97.47;101149.84;5011068;28;20113;-66
2022/04/01 09:10:49;;;;;;;3.22;1.17;;;;;;;3.51;98.80;101151.59;5011179;28;20026;-69
2022/04/01 09:13:15;;;;;;;3.20;1.27;;;;;;;3.44;99.08;101153.00;5010072;28;20134;-68
2022/04/01 09:15:42;;;;;;;1.35;1.13;;;;;;;3.30;97.85;101160.09;5011805;28;20525;-69
2022/04/01 09:18:08;;;;;;;4.00;1.40;;;;;;;3.30;99.36;101161.84;5012748;28;20128;-67
2022/04/01 09:20:50;;;;;;;1.23;0.80;;;;;;;3.37;99.15;101179.53;5010686;28;20105;-66
2022/04/01 09:23:23;;;;;;;1.02;0.90;;;;;;;3.43;97.32;101173.75;5007878;28;20152;-67
2022/04/01 09:25:50;;;;;;;2.13;1.05;;;;;;;3.42;97.84;101177.16;5014872;28;20056;-68
2022/04/01 09:28:29;;;;;;;3.40;1.30;;;;;;;3.59;98.98;101181.50;4995042;28;20030;-67
2022/04/01 09:31:15;;;;;;;2.75;1.27;;;;;;;3.57;99.04;101185.75;5011700;28;20045;-67
2022/04/01 09:33:43;;;;;;;3.13;1.30;;;;;;;3.56;97.41;101183.94;5012497;28;20032;-67
2022/04/01 09:36:11;;;;;;;2.78;1.38;;;;;;;3.69;98.62;101183.75;5012079;28;20041;-67
2022/04/01 09:38:36;;;;;;;1.42;1.02;;;;;;;3.76;96.54;101190.16;5010781;28;20026;-68
2022/04/01 09:41:07;;;;;;;1.58;1.00;;;;;;;3.71;96.05;101194.25;5011302;28;20494;-67
2022/04/01 09:43:39;;;;;;;1.33;0.90;;;;;;;3.81;96.50;101196.50;5010299;28;20390;-68
2022/04/01 09:46:21;;;;;;;2.25;1.08;;;;;;;3.82;96.77;101206.06;5011669;28;20084;-68
2022/04/01 09:48:47;;;;;;;2.72;1.50;;;;;;;3.95;95.17;101191.03;5006336;28;20090;-68
2022/04/01 09:51:12;;;;;;;4.85;1.48;;;;;;;4.02;94.77;101188.81;4994917;28;20022;-68
2022/04/01 09:53:38;;;;;;;2.67;1.27;;;;;;;3.97;94.89;101199.84;5003151;28;20028;-68
2022/04/01 09:56:03;;;;;;;3.42;1.15;;;;;;;3.98;95.12;101197.31;5011537;28;20128;-68
2022/04/01 09:58:29;;;;;;;3.05;1.38;;;;;;;4.21;93.98;101200.16;5011951;28;20030;-68
2022/04/01 10:00:56;;;;;;;1.50;0.95;;;;;;;4.42;95.06;101209.78;5010614;28;20017;-67
2022/04/01 10:03:22;;;;;;;2.17;1.10;;;;;;;4.52;91.99;101204.22;5011496;28;20028;-67
2022/04/01 10:05:47;;;;;;;3.15;1.10;;;;;;;4.49;93.53;101211.88;5011787;28;20466;-67
2022/04/01 10:08:13;;;;;;;3.25;1.05;;;;;;;4.33;90.88;101205.94;5011826;28;20038;-68
2022/04/01 10:10:40;;;;;;;4.57;1.38;;;;;;;4.24;94.83;101210.69;5010285;28;20370;-69
2022/04/01 10:13:10;;;;;;;2.25;1.15;;;;;;;4.18;92.90;101210.44;5011786;28;20028;-68
2022/04/01 10:15:37;;;;;;;1.88;1.13;;;;;;;4.33;94.04;101211.16;5011843;28;20481;-67
2022/04/01 10:18:03;;;;;;;4.32;1.35;;;;;;;4.29;92.33;101218.75;5010988;28;20386;-67
2022/04/01 10:20:34;;;;;;;3.20;1.02;;;;;;;4.21;92.87;101220.97;5011756;28;20038;-67
2022/04/01 10:23:03;;;;;;;2.58;1.35;;;;;;;4.21;94.36;101218.38;5011942;28;20041;-68
2022/04/01 10:25:37;;;;;;;4.03;1.15;;;;;;;3.96;93.54;101222.41;5013385;28;20030;-66
2022/04/01 10:28:04;;;;;;;;;;;;;;;3.91;93.54;101229.06;5015225;28;20034;-68
2022/04/01 10:30:31;;;;;;;1.65;1.10;;;;;;;3.98;91.99;101220.75;5015886;28;19909;-67
2022/04/01 10:32:57;;;;;;;1.55;1.00;;;;;;;3.87;92.53;101225.41;5015885;28;20030;-67
2022/04/01 10:35:27;;;;;;;9.57;1.20;;;;;;;3.91;92.89;101236.88;5015199;28;20049;-68
2022/04/01 10:38:12;;;;;;;1.80;1.00;;;;;;;3.84;91.51;101240.91;5013985;28;20032;-68
2022/04/01 10:40:42;;;;;;;1.42;1.17;;;;;;;4.07;91.87;101237.63;5015362;28;20034;-67
2022/04/01 10:43:15;;;;;;;2.22;1.05;;;;;;;4.22;93.64;101236.69;5014880;28;20390;-67
2022/04/01 10:45:55;;;;;;;1.60;1.00;;;;;;;4.46;90.98;101237.78;5015486;28;20038;-67
2022/04/01 10:53:56;;;;;;;3.90;1.55;;;;;;;4.61;88.81;101225.47;5014561;28;20075;-68
2022/04/01 10:56:24;;;;;;;1.38;0.93;;;;;;;4.72;89.11;101236.41;5014952;28;20484;-67
2022/04/01 10:59:16;;;;;;;2.38;1.10;;;;;;;4.71;89.00;101234.63;5014186;28;20033;-68
2022/04/01 11:02:02;;;;;;;2.50;1.27;;;;;;;4.66;87.81;101249.16;5014249;28;20030;-69
2022/04/01 11:04:32;;;;;;;2.33;1.65;;;;;;;4.53;88.24;101245.06;5007126;28;20109;-67
2022/04/01 11:07:02;;;;;;;2.63;0.95;;;;;;;4.83;89.99;101249.94;5008384;28;20026;-67
2022/04/01 11:09:48;;;;;;;3.38;1.20;;;;;;;4.82;90.63;101246.44;5009183;28;20600;-67
2022/04/01 11:12:23;;;;;;;6.38;1.30;;;;;;;4.76;87.70;101237.44;5005569;28;20030;-68
2022/04/01 11:14:55;;;;;;;2.38;1.15;;;;;;;4.90;87.59;101244.19;5012691;28;20030;-68
2022/04/01 11:17:26;;;;;;;2.75;1.50;;;;;;;4.73;86.57;101259.03;5013836;28;20030;-68
2022/04/01 11:20:26;;;;;;;2.22;1.40;;;;;;;4.70;88.56;101253.69;4990901;28;20047;-67
2022/04/01 11:22:56;;;;;;;3.83;1.63;;;;;;;4.64;86.53;101259.53;5013518;28;20414;-68
2022/04/01 11:25:21;;;;;;;1.75;1.33;;;;;;;4.58;87.64;101254.00;5014860;28;20029;-68
2022/04/01 11:28:02;;;;;;;2.22;1.30;;;;;;;4.64;89.85;101259.53;5014778;28;20033;-67
2022/04/01 11:30:34;;;;;;;1.60;1.48;;;;;;;4.94;89.68;101264.38;5013791;28;20391;-67
2022/04/01 11:33:19;;;;;;;3.88;1.38;;;;;;;5.72;85.49;101258.25;5012835;28;20034;-68
2022/04/01 11:35:53;;;;;;;4.00;1.77;;;;;;;6.00;84.28;101257.72;5013601;28;20033;-67
2022/04/01 11:38:24;;;;;;;2.72;2.03;;;;;;;5.99;82.74;101253.31;5012936;28;20025;-68
2022/04/01 11:40:56;;;;;;;4.00;1.63;;;;;;;5.41;84.64;101259.50;5013411;28;20502;-67
2022/04/01 11:43:23;;;;;;;2.22;1.70;;;;;;;5.11;85.48;101274.69;5013713;28;20416;-68